createdAt,value
2023-04-15T00:01:00.533Z,96130.34
2023-04-15T00:03:27.607Z,96127.63
2023-04-15T00:05:54.499Z,96126.25
2023-04-15T00:08:21.249Z,96128.16
2023-04-15T00:10:47.997Z,96128.16
2023-04-15T00:13:14.882Z,96127.38
2023-04-15T00:15:41.674Z,96123.53
2023-04-15T00:18:08.526Z,96127.59
2023-04-15T00:20:35.574Z,96133.28
2023-04-15T00:23:02.621Z,96128.16
2023-04-15T00:25:29.514Z,96127.34
2023-04-15T00:27:56.257Z,96122.97
2023-04-15T00:30:23.038Z,96127.84
2023-04-15T00:32:49.769Z,96128.66
2023-04-15T00:35:16.615Z,96126.50
2023-04-15T00:37:45.498Z,96122.97
2023-04-15T00:40:13.326Z,96126.50
2023-04-15T00:42:40.059Z,96123.78
2023-04-15T00:45:07.387Z,96131.13
2023-04-15T00:47:34.199Z,96127.34
2023-04-15T00:50:00.967Z,96121.34
2023-04-15T00:52:27.641Z,96130.88
2023-04-15T00:54:54.288Z,96121.91
2023-04-15T00:57:21.445Z,96129.78
2023-04-15T00:59:48.490Z,96118.38
2023-04-15T01:02:15.369Z,96121.06
2023-04-15T01:04:42.159Z,96121.56
2023-04-15T01:07:08.948Z,96112.13
2023-04-15T01:09:35.792Z,96109.94
2023-04-15T01:12:02.445Z,96116.75
2023-04-15T01:14:29.182Z,96113.19
2023-04-15T01:16:55.884Z,96122.16
2023-04-15T01:19:22.554Z,96115.09
2023-04-15T01:21:49.253Z,96118.63
2023-04-15T01:24:15.953Z,96128.66
2023-04-15T01:26:44.458Z,96115.66
2023-04-15T01:29:11.323Z,96116.66
2023-04-15T01:31:38.155Z,96119.94
2023-04-15T01:34:04.924Z,96116.13
2023-04-15T01:36:31.661Z,96119.13
2023-04-15T01:38:58.548Z,96115.09
2023-04-15T01:41:28.789Z,96113.19
2023-04-15T01:43:55.732Z,96114.81
2023-04-15T01:46:22.861Z,96116.66
2023-04-15T01:48:49.738Z,96112.03
2023-04-15T01:51:16.485Z,96108.00
2023-04-15T01:53:43.200Z,96105.28
2023-04-15T01:56:09.912Z,96108.84
2023-04-15T01:58:36.620Z,96102.81
2023-04-15T02:01:06.015Z,96106.63
2023-04-15T02:03:32.886Z,96110.25
2023-04-15T02:05:59.673Z,96109.66
2023-04-15T02:08:26.393Z,96106.94
2023-04-15T02:10:53.329Z,96109.94
2023-04-15T02:13:20.094Z,96104.25
2023-04-15T02:15:50.124Z,96108.06
2023-04-15T02:18:17.009Z,96103.44
2023-04-15T02:20:43.821Z,96103.41
2023-04-15T02:23:10.592Z,96105.59
2023-04-15T02:25:37.728Z,96098.28
2023-04-15T02:28:05.568Z,96096.91
2023-04-15T02:30:32.888Z,96093.66
2023-04-15T02:33:00.828Z,96092.31
2023-04-15T02:35:27.618Z,96096.09
2023-04-15T02:37:54.410Z,96096.63
2023-04-15T02:40:21.261Z,96092.84
2023-04-15T02:42:48.014Z,96097.97
2023-04-15T02:45:14.744Z,96101.81
2023-04-15T02:47:41.703Z,96097.75
2023-04-15T02:50:09.597Z,96099.09
2023-04-15T02:52:36.388Z,96100.47
2023-04-15T02:55:03.390Z,96087.69
2023-04-15T02:57:30.160Z,96087.69
2023-04-15T02:59:56.927Z,96093.09
2023-04-15T03:02:24.763Z,96089.31
2023-04-15T03:04:51.571Z,96097.19
2023-04-15T03:07:18.512Z,96089.03
2023-04-15T03:09:46.104Z,96099.09
2023-04-15T03:12:12.839Z,96092.84
2023-04-15T03:14:39.614Z,96096.09
2023-04-15T03:17:06.397Z,96085.81
2023-04-15T03:19:33.102Z,96090.13
2023-04-15T03:21:59.925Z,96088.47
2023-04-15T03:24:26.767Z,96093.94
2023-04-15T03:26:53.497Z,96091.78
2023-04-15T03:29:20.224Z,96087.44
2023-04-15T03:31:47.040Z,96082.22
2023-04-15T03:34:13.787Z,96090.13
2023-04-15T03:36:40.589Z,96082.78
2023-04-15T03:39:07.356Z,96083.34
2023-04-15T03:41:34.212Z,96080.63
2023-04-15T03:44:00.987Z,96084.13
2023-04-15T03:46:27.904Z,96086.31
2023-04-15T03:48:54.721Z,96083.31
2023-04-15T03:51:21.493Z,96089.56
2023-04-15T03:53:48.319Z,96089.31
2023-04-15T03:56:15.069Z,96086.63
2023-04-15T03:58:41.791Z,96087.97
2023-04-15T04:01:08.558Z,96084.44
2023-04-15T04:03:35.565Z,96087.66
2023-04-15T04:06:02.452Z,96084.69
2023-04-15T04:08:29.184Z,96083.31
2023-04-15T04:10:56.028Z,96082.22
2023-04-15T04:13:22.738Z,96086.84
2023-04-15T04:15:49.480Z,96073.25
2023-04-15T04:18:16.219Z,96085.22
2023-04-15T04:20:42.904Z,96080.34
2023-04-15T04:23:09.643Z,96085.78
2023-04-15T04:25:36.406Z,96090.38
2023-04-15T04:28:03.620Z,96092.53
2023-04-15T04:30:30.373Z,96089.84
2023-04-15T04:32:57.125Z,96083.34
2023-04-15T04:35:23.938Z,96088.75
2023-04-15T04:37:50.656Z,96086.31
2023-04-15T04:40:17.603Z,96087.97
2023-04-15T04:42:44.371Z,96085.25
2023-04-15T04:47:37.307Z,96080.63
2023-04-15T04:50:04.617Z,96071.97
2023-04-15T04:52:31.714Z,96068.69
2023-04-15T04:54:58.451Z,96068.69
2023-04-15T04:57:26.314Z,96064.06
2023-04-15T04:59:53.028Z,96059.97
2023-04-15T05:02:19.867Z,96062.44
2023-04-15T05:04:46.713Z,96064.59
2023-04-15T05:07:13.532Z,96065.16
2023-04-15T05:09:40.348Z,96065.22
2023-04-15T05:12:07.245Z,96083.34
2023-04-15T05:14:34.186Z,96073.81
2023-04-15T05:17:00.974Z,96072.22
2023-04-15T05:19:27.784Z,96069.25
2023-04-15T05:21:54.503Z,96070.03
2023-04-15T05:24:21.213Z,96070.03
2023-04-15T05:26:47.994Z,96071.91
2023-04-15T05:29:14.801Z,96064.06
2023-04-15T05:31:41.576Z,96060.78
2023-04-15T05:34:08.570Z,96065.69
2023-04-15T05:36:35.332Z,96068.41
2023-04-15T05:39:02.531Z,96056.19
2023-04-15T05:41:29.702Z,96062.69
2023-04-15T05:43:56.447Z,96067.56
2023-04-15T05:46:23.150Z,96070.03
2023-04-15T05:48:51.046Z,96067.06
2023-04-15T05:51:17.760Z,96067.06
2023-04-15T05:53:44.539Z,96070.31
2023-04-15T05:56:11.388Z,96077.66
2023-04-15T05:58:38.292Z,96077.91
2023-04-15T06:01:05.150Z,96078.44
2023-04-15T06:03:32.165Z,96076.53
2023-04-15T06:05:58.924Z,96086.53
2023-04-15T06:08:25.681Z,96087.09
2023-04-15T06:10:52.507Z,96084.13
2023-04-15T06:13:19.205Z,96085.78
2023-04-15T06:15:45.944Z,96097.13
2023-04-15T06:18:12.699Z,96100.16
2023-04-15T06:20:39.503Z,96094.41
2023-04-15T06:23:06.214Z,96098.53
2023-04-15T06:25:32.952Z,96095.50
2023-04-15T06:27:59.725Z,96096.31
2023-04-15T06:30:26.540Z,96097.66
2023-04-15T06:32:53.428Z,96093.09
2023-04-15T06:35:20.188Z,96094.19
2023-04-15T06:37:46.932Z,96097.13
2023-04-15T06:40:13.810Z,96106.34
2023-04-15T06:42:40.531Z,96098.00
2023-04-15T06:45:07.949Z,96101.50
2023-04-15T06:47:34.834Z,96110.97
2023-04-15T06:50:01.580Z,96110.97
2023-04-15T06:52:28.280Z,96103.97
2023-04-15T06:54:55.013Z,96115.91
2023-04-15T06:57:21.686Z,96112.94
2023-04-15T06:59:48.349Z,96114.28
2023-04-15T07:02:15.062Z,96113.75
2023-04-15T07:04:44.321Z,96104.78
2023-04-15T07:07:11.056Z,96100.97
2023-04-15T07:09:37.776Z,96101.53
2023-04-15T07:12:04.471Z,96109.66
2023-04-15T07:14:31.186Z,96111.84
2023-04-15T07:16:57.927Z,96110.69
2023-04-15T07:19:24.682Z,96099.91
2023-04-15T07:21:51.341Z,96105.91
2023-04-15T07:24:18.056Z,96104.25
2023-04-15T07:26:44.945Z,96106.94
2023-04-15T07:29:11.713Z,96102.88
2023-04-15T07:31:38.446Z,96099.66
2023-04-15T07:34:06.595Z,96104.00
2023-04-15T07:36:33.231Z,96097.47
2023-04-15T07:39:00.136Z,96111.88
2023-04-15T07:41:27.158Z,96102.09
2023-04-15T07:43:53.815Z,96107.03
2023-04-15T07:46:20.584Z,96111.13
2023-04-15T07:48:47.285Z,96111.63
2023-04-15T07:51:14.007Z,96114.66
2023-04-15T07:53:40.722Z,96116.25
2023-04-15T07:56:07.565Z,96110.59
2023-04-15T07:58:34.285Z,96111.81
2023-04-15T08:01:01.085Z,96116.19
2023-04-15T08:03:27.957Z,96115.91
2023-04-15T08:05:54.791Z,96110.88
2023-04-15T08:08:21.480Z,96107.13
2023-04-15T08:10:48.936Z,96112.03
2023-04-15T08:13:16.971Z,96113.41
2023-04-15T08:15:43.711Z,96111.72
2023-04-15T08:18:10.587Z,96110.66
2023-04-15T08:20:37.354Z,96125.06
2023-04-15T08:23:04.018Z,96125.31
2023-04-15T08:25:30.742Z,96126.44
2023-04-15T08:27:57.421Z,96134.88
2023-04-15T08:30:24.196Z,96131.59
2023-04-15T08:32:50.983Z,96137.50
2023-04-15T08:35:17.861Z,96132.91
2023-04-15T08:37:44.565Z,96136.50
2023-04-15T08:40:11.776Z,96139.69
2023-04-15T08:42:42.955Z,96137.78
2023-04-15T08:45:10.439Z,96138.34
2023-04-15T08:47:38.163Z,96142.66
2023-04-15T08:50:05.691Z,96144.84
2023-04-15T08:52:32.594Z,96148.09
2023-04-15T08:54:59.355Z,96151.38
2023-04-15T08:57:26.936Z,96155.72
2023-04-15T08:59:55.944Z,96156.50
2023-04-15T09:02:23.726Z,96163.81
2023-04-15T09:04:50.637Z,96173.09
2023-04-15T09:07:17.451Z,96167.41
2023-04-15T09:09:44.304Z,96170.38
2023-04-15T09:12:11.663Z,96166.59
2023-04-15T09:14:40.415Z,96169.84
2023-04-15T09:17:10.133Z,96179.09
2023-04-15T09:19:36.878Z,96177.78
2023-04-15T09:22:03.655Z,96182.97
2023-04-15T09:24:38.446Z,96181.53
2023-04-15T09:27:07.878Z,96189.22
2023-04-15T09:29:34.688Z,96188.31
2023-04-15T09:32:14.727Z,96189.69
2023-04-15T09:34:41.469Z,96199.75
2023-04-15T09:37:08.218Z,96200.00
2023-04-15T09:39:50.429Z,96205.97
2023-04-15T09:42:17.247Z,96210.88
2023-04-15T09:44:44.016Z,96213.28
2023-04-15T09:47:12.389Z,96216.56
2023-04-15T09:49:39.092Z,96222.00
2023-04-15T09:52:06.629Z,96226.63
2023-04-15T09:54:34.889Z,96224.72
2023-04-15T09:57:05.849Z,96236.97
2023-04-15T09:59:32.590Z,96235.97
2023-04-15T10:01:59.359Z,96228.31
2023-04-15T10:04:26.257Z,96237.03
2023-04-15T10:06:53.076Z,96239.75
2023-04-15T10:09:19.867Z,96245.44
2023-04-15T10:11:46.584Z,96256.81
2023-04-15T10:14:13.568Z,96254.69
2023-04-15T10:16:40.311Z,96253.38
2023-04-15T10:19:06.990Z,96255.25
2023-04-15T10:21:33.700Z,96255.28
2023-04-15T10:24:00.926Z,96256.34
2023-04-15T10:26:27.950Z,96265.84
2023-04-15T10:28:54.757Z,96264.22
2023-04-15T10:31:21.453Z,96269.66
2023-04-15T10:33:48.209Z,96268.38
2023-04-15T10:36:14.928Z,96269.94
2023-04-15T10:38:43.064Z,96274.03
2023-04-15T10:41:13.366Z,96273.59
2023-04-15T10:43:40.565Z,96271.44
2023-04-15T10:46:07.292Z,96273.09
2023-04-15T10:48:34.071Z,96277.13
2023-04-15T10:51:01.171Z,96285.50
2023-04-15T10:53:31.051Z,96275.75
2023-04-15T10:55:58.141Z,96278.41
2023-04-15T10:58:25.337Z,96286.31
2023-04-15T11:00:53.671Z,96298.19
2023-04-15T11:03:40.428Z,96288.72
2023-04-15T11:06:07.410Z,96303.94
2023-04-15T11:09:11.635Z,96305.56
2023-04-15T11:12:11.036Z,96307.84
2023-04-15T11:14:40.842Z,96308.94
2023-04-15T11:17:07.920Z,96319.28
2023-04-15T11:19:38.549Z,96309.81
2023-04-15T11:22:11.657Z,96320.50
2023-04-15T11:24:47.744Z,96317.78
2023-04-15T11:27:23.590Z,96318.03
2023-04-15T11:29:52.399Z,96322.91
2023-04-15T11:32:19.370Z,96330.50
2023-04-15T11:34:47.589Z,96322.25
2023-04-15T11:37:14.864Z,96324.81
2023-04-15T11:39:42.101Z,96327.53
2023-04-15T11:42:18.774Z,96325.88
2023-04-15T11:44:46.344Z,96333.53
2023-04-15T11:47:24.941Z,96339.22
2023-04-15T11:49:51.926Z,96343.00
2023-04-15T11:52:19.014Z,96339.25
2023-04-15T11:54:45.933Z,96343.56
2023-04-15T11:57:13.726Z,96352.84
2023-04-15T11:59:46.032Z,96356.03
2023-04-15T12:02:13.809Z,96355.34
2023-04-15T12:04:40.715Z,96362.16
2023-04-15T12:07:08.502Z,96359.84
2023-04-15T12:09:38.400Z,96360.41
2023-04-15T12:12:05.408Z,96374.53
2023-04-15T12:14:33.136Z,96369.09
2023-04-15T12:17:06.764Z,96377.28
2023-04-15T12:19:37.782Z,96380.28
2023-04-15T12:22:10.582Z,96382.16
2023-04-15T12:24:37.858Z,96394.63
2023-04-15T12:27:09.350Z,96392.53
2023-04-15T12:29:40.615Z,96397.97
2023-04-15T12:32:09.019Z,96399.56
2023-04-15T12:34:39.853Z,96403.09
2023-04-15T12:37:09.896Z,96407.72
2023-04-15T12:39:38.407Z,96408.78
2023-04-15T12:42:05.376Z,96415.63
2023-04-15T12:44:33.587Z,96413.97
2023-04-15T12:47:00.977Z,96418.66
2023-04-15T12:49:28.449Z,96422.19
2023-04-15T12:51:57.489Z,96422.44
2023-04-15T12:54:24.548Z,96420.63
2023-04-15T12:56:52.261Z,96430.69
2023-04-15T12:59:19.520Z,96433.41
2023-04-15T13:01:47.380Z,96430.72
2023-04-15T13:04:18.034Z,96436.38
2023-04-15T13:06:45.229Z,96433.28
2023-04-15T13:09:12.133Z,96442.00
2023-04-15T13:11:38.997Z,96447.81
2023-04-15T13:14:07.084Z,96449.25
2023-04-15T13:16:34.439Z,96457.56
2023-04-15T13:19:02.564Z,96453.78
2023-04-15T13:21:29.825Z,96458.88
2023-04-15T13:23:56.978Z,96457.84
2023-04-15T13:26:23.889Z,96456.94
2023-04-15T13:28:51.008Z,96464.00
2023-04-15T13:31:18.277Z,96470.50
2023-04-15T13:33:45.162Z,96478.16
2023-04-15T13:36:12.909Z,96472.47
2023-04-15T13:38:39.893Z,96474.88
2023-04-15T13:41:06.905Z,96477.03
2023-04-15T13:43:34.247Z,96483.53
2023-04-15T13:46:01.410Z,96482.16
2023-04-15T13:48:29.069Z,96489.22
2023-04-15T13:50:56.100Z,96487.59
2023-04-15T13:53:37.808Z,96489.78
2023-04-15T13:56:08.868Z,96489.78
2023-04-15T13:58:36.897Z,96486.56
2023-04-15T14:01:05.763Z,96496.31
2023-04-15T14:03:34.632Z,96505.53
2023-04-15T14:06:01.607Z,96495.25
2023-04-15T14:08:28.684Z,96506.38
2023-04-15T14:10:55.528Z,96512.63
2023-04-15T14:13:22.485Z,96512.38
2023-04-15T14:15:50.431Z,96509.66
2023-04-15T14:18:17.518Z,96511.22
2023-04-15T14:20:44.218Z,96516.88
2023-04-15T14:23:11.165Z,96525.03
2023-04-15T14:25:44.173Z,96530.72
2023-04-15T14:28:12.465Z,96529.34
2023-04-15T14:30:39.482Z,96526.72
2023-04-15T14:33:06.435Z,96531.56
2023-04-15T14:35:33.227Z,96533.44
2023-04-15T14:38:00.002Z,96534.88
2023-04-15T14:40:26.855Z,96541.34
2023-04-15T14:42:53.618Z,96538.97
2023-04-15T14:45:20.485Z,96546.47
2023-04-15T14:47:47.362Z,96544.59
2023-04-15T14:50:14.189Z,96549.44
2023-04-15T14:52:40.970Z,96557.09
2023-04-15T14:55:12.071Z,96556.53
2023-04-15T14:57:39.438Z,96561.47
2023-04-15T15:00:06.977Z,96565.81
2023-04-15T15:02:38.893Z,96567.16
2023-04-15T15:05:07.226Z,96572.59
2023-04-15T15:07:34.085Z,96578.13
2023-04-15T15:10:00.779Z,96581.56
2023-04-15T15:12:27.445Z,96576.94
2023-04-15T15:14:55.375Z,96589.16
2023-04-15T15:17:23.316Z,96588.63
2023-04-15T15:19:50.070Z,96592.44
2023-04-15T15:22:18.907Z,96599.75
2023-04-15T15:24:46.994Z,96599.50
2023-04-15T15:27:14.280Z,96598.44
2023-04-15T15:29:41.467Z,96603.56
2023-04-15T15:32:08.361Z,96603.66
2023-04-15T15:34:35.327Z,96613.34
2023-04-15T15:37:02.200Z,96619.03
2023-04-15T15:39:29.102Z,96619.72
2023-04-15T15:41:57.376Z,96622.09
2023-04-15T15:44:24.135Z,96619.63
2023-04-15T15:46:51.163Z,96627.50
2023-04-15T15:49:17.968Z,96635.91
2023-04-15T15:51:45.001Z,96633.19
2023-04-15T15:54:11.817Z,96638.38
2023-04-15T15:56:38.673Z,96640.28
2023-04-15T15:59:05.789Z,96645.41
2023-04-15T16:01:33.061Z,96645.47
2023-04-15T16:04:00.397Z,96644.91
2023-04-15T16:06:27.396Z,96655.53
2023-04-15T16:08:54.108Z,96648.69
2023-04-15T16:11:20.888Z,96661.47
2023-04-15T16:13:47.623Z,96666.56
2023-04-15T16:16:14.500Z,96669.84
2023-04-15T16:18:41.356Z,96674.22
2023-04-15T16:21:08.316Z,96675.78
2023-04-15T16:23:35.615Z,96672.56
2023-04-15T16:26:02.863Z,96678.25
2023-04-15T16:28:29.771Z,96686.66
2023-04-15T16:30:56.559Z,96691.50
2023-04-15T16:33:23.907Z,96692.34
2023-04-15T16:35:51.164Z,96697.53
2023-04-15T16:38:18.069Z,96697.19
2023-04-15T16:40:45.672Z,96706.97
2023-04-15T16:43:12.853Z,96715.13
2023-04-15T16:45:39.891Z,96724.97
2023-04-15T16:48:07.000Z,96725.19
2023-04-15T16:50:34.098Z,96730.16
2023-04-15T16:53:04.932Z,96739.59
2023-04-15T16:55:34.775Z,96745.22
2023-04-15T16:58:04.186Z,96748.19
2023-04-15T17:00:32.210Z,96757.53
2023-04-15T17:03:00.434Z,96757.84
2023-04-15T17:05:27.774Z,96768.22
2023-04-15T17:07:55.205Z,96766.50
2023-04-15T17:10:22.803Z,96770.63
2023-04-15T17:12:49.896Z,96766.00
2023-04-15T17:15:17.343Z,96766.34
2023-04-15T17:17:44.630Z,96771.19
2023-04-15T17:20:11.602Z,96769.88
2023-04-15T17:22:38.527Z,96776.16
2023-04-15T17:25:06.226Z,96786.88
2023-04-15T17:27:33.826Z,96782.75
2023-04-15T17:30:00.786Z,96771.88
2023-04-15T17:32:27.677Z,96766.59
2023-04-15T17:34:54.628Z,96782.19
2023-04-15T17:37:22.784Z,96792.69
2023-04-15T17:39:49.791Z,96802.44
2023-04-15T17:42:16.613Z,96809.50
2023-04-15T17:44:43.296Z,96824.41
2023-04-15T17:47:10.111Z,96831.16
2023-04-15T17:49:37.220Z,96844.75
2023-04-15T17:52:04.406Z,96847.56
2023-04-15T17:54:31.593Z,96847.69
2023-04-15T17:56:58.727Z,96846.41
2023-04-15T17:59:28.776Z,96848.88
2023-04-15T18:01:56.052Z,96851.25
2023-04-15T18:04:26.426Z,96856.34
2023-04-15T18:06:54.074Z,96855.84
2023-04-15T18:09:21.664Z,96861.06
2023-04-15T18:11:49.049Z,96862.84
2023-04-15T18:14:30.750Z,96868.75
2023-04-15T18:17:00.506Z,96879.50
2023-04-15T18:19:27.291Z,96879.41
2023-04-15T18:21:54.441Z,96887.31
2023-04-15T18:24:21.815Z,96895.47
2023-04-15T18:26:49.337Z,96891.09
2023-04-15T18:29:19.588Z,96902.56
2023-04-15T18:31:46.421Z,96908.22
2023-04-15T18:34:14.791Z,96909.63
2023-04-15T18:36:41.606Z,96921.59
2023-04-15T18:39:08.493Z,96913.66
2023-04-15T18:41:35.534Z,96913.34
2023-04-15T18:44:02.553Z,96911.19
2023-04-15T18:46:29.718Z,96923.13
2023-04-15T18:48:56.494Z,96935.06
2023-04-15T18:51:23.391Z,96940.97
2023-04-15T18:53:50.135Z,96944.06
2023-04-15T18:56:17.210Z,96952.78
2023-04-15T18:59:18.188Z,96953.50
2023-04-15T19:01:31.679Z,96961.53
2023-04-15T19:04:01.487Z,96967.31
2023-04-15T19:06:28.424Z,96964.84
2023-04-15T19:08:55.213Z,96969.47
2023-04-15T19:11:22.031Z,96977.38
2023-04-15T19:13:48.804Z,96978.44
2023-04-15T19:16:15.837Z,96981.41
2023-04-15T19:18:45.814Z,96981.97
2023-04-15T19:21:13.319Z,96985.91
2023-04-15T19:23:40.125Z,96981.50
2023-04-15T19:26:08.661Z,96987.06
2023-04-15T19:28:36.783Z,97004.53
2023-04-15T19:31:04.067Z,96997.44
2023-04-15T19:33:30.952Z,96995.69
2023-04-15T19:36:05.783Z,97004.31
2023-04-15T19:38:33.253Z,97009.75
2023-04-15T19:41:00.468Z,97006.91
2023-04-15T19:43:46.828Z,97011.19
2023-04-15T19:46:17.036Z,97004.91
2023-04-15T19:48:43.886Z,97012.69
2023-04-15T19:51:10.571Z,97018.97
2023-04-15T19:53:37.345Z,97029.25
2023-04-15T19:56:04.394Z,97030.91
2023-04-15T19:58:31.190Z,97038.22
2023-04-15T20:00:58.259Z,97041.44
2023-04-15T20:03:25.003Z,97037.16
2023-04-15T20:05:51.892Z,97040.13
2023-04-15T20:08:18.715Z,97038.56
2023-04-15T20:10:45.463Z,97040.22
2023-04-15T20:13:12.212Z,97040.59
2023-04-15T20:15:38.927Z,97036.09
2023-04-15T20:18:05.693Z,97043.44
2023-04-15T20:20:34.513Z,97044.50
2023-04-15T20:23:01.322Z,97047.34
2023-04-15T20:25:28.089Z,97039.78
2023-04-15T20:27:54.819Z,97044.72
2023-04-15T20:30:21.502Z,97045.56
2023-04-15T20:32:48.205Z,97036.56
2023-04-15T20:35:15.210Z,97027.34
2023-04-15T20:37:43.586Z,97037.41
2023-04-15T20:40:10.676Z,97038.81
2023-04-15T20:42:37.344Z,97040.72
2023-04-15T20:45:04.453Z,97043.91
2023-04-15T20:47:31.224Z,97053.47
2023-04-15T20:49:58.055Z,97049.69
2023-04-15T20:52:24.825Z,97048.75
2023-04-15T20:54:51.581Z,97052.41
2023-04-15T20:57:18.414Z,97058.31
2023-04-15T20:59:45.185Z,97065.91
2023-04-15T21:02:12.111Z,97058.31
2023-04-15T21:04:39.060Z,97064.00
2023-04-15T21:07:05.871Z,97067.53
2023-04-15T21:09:32.639Z,97065.31
2023-04-15T21:12:01.458Z,97072.63
2023-04-15T21:14:29.172Z,97077.59
2023-04-15T21:16:57.228Z,97076.75
2023-04-15T21:19:24.059Z,97080.56
2023-04-15T21:21:50.821Z,97079.13
2023-04-15T21:24:17.611Z,97088.72
2023-04-15T21:26:44.437Z,97090.84
2023-04-15T21:29:11.921Z,97093.31
2023-04-15T21:31:38.950Z,97095.44
2023-04-15T21:34:05.728Z,97092.84
2023-04-15T21:36:32.565Z,97089.78
2023-04-15T21:38:59.742Z,97095.56
2023-04-15T21:41:26.916Z,97091.78
2023-04-15T21:43:53.829Z,97093.56
2023-04-15T21:46:24.492Z,97092.00
2023-04-15T21:48:54.868Z,97096.28
2023-04-15T21:51:21.624Z,97090.00
2023-04-15T21:53:48.463Z,97094.63
2023-04-15T21:56:15.216Z,97090.84
2023-04-15T21:58:42.034Z,97098.16
2023-04-15T22:01:08.849Z,97100.66
2023-04-15T22:03:35.758Z,97099.56
2023-04-15T22:06:03.198Z,97099.00
2023-04-15T22:08:36.049Z,97104.44
2023-04-15T22:11:21.997Z,97112.34
2023-04-15T22:13:48.928Z,97106.09
2023-04-15T22:16:15.730Z,97115.66
2023-04-15T22:18:42.478Z,97107.97
2023-04-15T22:21:09.287Z,97099.81
2023-04-15T22:23:36.061Z,97096.28
2023-04-15T22:26:03.004Z,97109.03
2023-04-15T22:28:29.766Z,97109.88
2023-04-15T22:30:56.487Z,97112.59
2023-04-15T22:33:23.246Z,97117.78
2023-04-15T22:35:50.050Z,97130.31
2023-04-15T22:38:16.750Z,97125.69
2023-04-15T22:40:46.095Z,97126.38
2023-04-15T22:43:12.839Z,97138.22
2023-04-15T22:45:39.576Z,97138.13
2023-04-15T22:48:06.396Z,97138.94
2023-04-15T22:50:33.193Z,97141.66
2023-04-15T22:52:59.946Z,97137.88
2023-04-15T22:55:26.832Z,97140.59
2023-04-15T22:57:53.592Z,97142.25
2023-04-15T23:00:20.445Z,97146.03
2023-04-15T23:02:47.396Z,97149.19
2023-04-15T23:05:14.217Z,97149.81
2023-04-15T23:07:40.973Z,97152.72
2023-04-15T23:10:08.509Z,97152.53
2023-04-15T23:12:35.328Z,97151.22
2023-04-15T23:15:02.681Z,97150.63
2023-04-15T23:17:29.457Z,97138.69
2023-04-15T23:19:56.171Z,97151.91
2023-04-15T23:22:22.845Z,97151.69
2023-04-15T23:24:49.639Z,97157.34
2023-04-15T23:27:16.674Z,97160.88
2023-04-15T23:29:43.473Z,97164.66
2023-04-15T23:32:10.275Z,97157.97
2023-04-15T23:34:37.438Z,97164.66
2023-04-15T23:37:04.129Z,97174.28
2023-04-15T23:39:30.866Z,97170.94
2023-04-15T23:41:57.627Z,97175.94
2023-04-15T23:44:24.337Z,97179.47
2023-04-15T23:46:51.234Z,97176.75
2023-04-15T23:49:20.109Z,97183.25
2023-04-15T23:51:47.265Z,97186.41
2023-04-15T23:54:14.747Z,97185.81
2023-04-15T23:56:41.532Z,97179.31
2023-04-15T23:59:08.540Z,97179.09
